Huvudsida
METAR-TAF:

METAR-TAF

Flygplatser :

Pisas internationella flygplats

Pisa, Italien

latitud: 43-41N, longitud: 010-23E, höjd: 2 m

Aktuellt väderrapport

Denna rapport gjordes för 37 minuter sedan, klockan 14:15 UTC
Vind 12 kt från nordväst
Temperatur 33°C
Fuktighet 44%
Tryck 1020 hPa
Sikt 10 km eller mer
Inga moln under 1 500 m eller inga cumulonimbus

METAR: LIRP 261415Z 32012KT CAVOK 33/19 Q1020 NOSIG

Tid: 16:52 (14:52 UTC)

Väderprognos

Denna rapport gjordes för 3 timmar och 52 minuter sedan, klockan 11:00 UTC
Prognos gäller från 26 kl. 12 UTC till 27 kl. 12 UTC
Vind 8 kt från väst/nordväst
Sikt 10 km eller mer
Inga moln under 1 500 m eller inga cumulonimbus
Blir
från 26 kl. 19 UTC till 26 kl. 22 UTC
Vind 5 kt från ost/sydost

TAF: LIRP 261100Z 2612/2712 30008KT CAVOK BECMG 2619/2622 12005KT

Aktuella väderrapporter och prognoser från 4000 flygplatser (METAR- och TAF-rapporter).

De tillgängliga stationerna syns som gula och röda prickar på kartan.

För musen över prickarna för att se namnen på stationerna.

Klicka sedan för att få väderrapporter och prognoser.

För att ändra kartan: Klicka på de gröna knapparna med ett svart kors på för att zooma in; den gröna knappen med ett streck på för att zooma ut; eller på de gröna pilarna för angränsande kartor.


METAR-TAF: